Time;durP1;ratioP1;P1;durP2;ratioP2;P2;SDS_P1;SDS_P2;PMS_P1;PMS_P2;Temp;Humidity;BMP_temperature;BMP_pressure;BME280_temperature;BME280_humidity;BME280_pressure;Samples;Min_cycle;Max_cycle;Signal;HPM_P1;HPM_P2
2022/08/26 00:00:56;;;;;;;28.38;24.02;;;22.70;99.90;;;;;;4975828;28;20046;-51
2022/08/26 00:03:22;;;;;;;26.67;23.88;;;22.70;99.90;;;;;;5041155;28;20074;-52
2022/08/26 00:05:49;;;;;;;37.53;31.08;;;22.70;99.90;;;;;;5035096;28;20037;-51
2022/08/26 00:08:18;;;;;;;49.15;34.85;;;22.60;99.90;;;;;;5053578;28;20036;-51
2022/08/26 00:10:44;;;;;;;58.05;46.58;;;22.70;99.90;;;;;;5054125;28;20108;-52
2022/08/26 00:13:10;;;;;;;56.78;42.00;;;22.70;99.90;;;;;;5053189;28;20163;-52
2022/08/26 00:15:37;;;;;;;46.40;36.33;;;22.70;99.90;;;;;;5001818;28;20087;-51
2022/08/26 00:18:04;;;;;;;38.90;29.98;;;22.70;99.90;;;;;;5051489;28;20035;-51
2022/08/26 00:20:31;;;;;;;31.58;25.98;;;22.80;99.90;;;;;;4976233;28;20128;-51
2022/08/26 00:22:57;;;;;;;30.80;23.45;;;22.80;99.90;;;;;;5006987;28;20042;-51
2022/08/26 00:25:23;;;;;;;23.88;21.17;;;22.80;99.90;;;;;;5010848;28;20481;-51
2022/08/26 00:27:50;;;;;;;24.52;20.80;;;22.70;99.90;;;;;;5010380;28;20076;-51
2022/08/26 00:30:21;;;;;;;21.48;19.35;;;22.70;99.90;;;;;;4976672;28;20500;-52
2022/08/26 00:32:46;;;;;;;27.90;21.00;;;22.70;99.90;;;;;;5011033;28;20355;-53
2022/08/26 00:35:13;;;;;;;24.65;18.77;;;22.70;99.90;;;;;;5010145;28;20100;-52
2022/08/26 00:37:40;;;;;;;25.08;17.38;;;22.70;99.90;;;;;;5011218;28;20525;-52
2022/08/26 00:40:10;;;;;;;18.58;16.70;;;22.70;99.90;;;;;;5011060;28;20069;-52
2022/08/26 00:42:36;;;;;;;19.25;17.25;;;22.70;99.90;;;;;;4994601;28;20505;-51
2022/08/26 00:45:03;;;;;;;24.55;17.42;;;22.70;99.90;;;;;;5010949;28;20026;-51
2022/08/26 00:47:51;;;;;;;23.20;18.30;;;22.70;99.90;;;;;;4994575;28;20041;-54
2022/08/26 00:50:24;;;;;;;20.17;18.05;;;22.70;99.90;;;;;;5007297;28;20034;-52
2022/08/26 00:52:52;;;;;;;23.17;19.75;;;22.70;99.90;;;;;;5002175;28;20041;-54
2022/08/26 00:55:35;;;;;;;22.38;17.65;;;22.70;99.90;;;;;;4981982;28;20049;-51
2022/08/26 00:58:02;;;;;;;23.70;17.33;;;22.70;99.90;;;;;;5032256;28;20115;-52
2022/08/26 01:00:30;;;;;;;22.98;18.63;;;22.60;99.90;;;;;;4997816;28;20041;-52
2022/08/26 01:02:58;;;;;;;25.05;18.90;;;22.70;99.90;;;;;;5033144;28;20376;-54
2022/08/26 01:05:24;;;;;;;27.35;19.10;;;22.70;99.90;;;;;;5032756;28;20037;-54
2022/08/26 01:07:50;;;;;;;23.77;18.08;;;22.70;99.90;;;;;;5032721;28;20021;-54
2022/08/26 01:10:20;;;;;;;23.65;18.42;;;22.60;99.90;;;;;;5032609;28;20473;-53
2022/08/26 01:12:53;;;;;;;20.45;18.23;;;22.60;99.90;;;;;;5032968;28;20030;-51
2022/08/26 01:15:23;;;;;;;20.13;17.92;;;22.60;99.90;;;;;;5013964;28;20052;-50
2022/08/26 01:17:50;;;;;;;23.95;19.05;;;22.60;99.90;;;;;;5032624;28;20067;-52
2022/08/26 01:20:34;;;;;;;22.75;18.70;;;22.50;99.90;;;;;;4997399;28;20171;-52
2022/08/26 01:23:03;;;;;;;21.30;19.08;;;22.50;99.90;;;;;;5047226;28;20555;-51
2022/08/26 01:25:32;;;;;;;22.33;18.90;;;22.60;99.90;;;;;;5052320;28;20036;-50
2022/08/26 01:28:01;;;;;;;24.67;19.98;;;22.50;99.90;;;;;;5052387;28;20063;-50
2022/08/26 01:30:30;;;;;;;20.15;18.25;;;22.50;99.90;;;;;;5049182;28;20029;-51
2022/08/26 01:32:59;;;;;;;23.83;18.67;;;22.50;99.90;;;;;;5052228;28;20028;-52
2022/08/26 01:35:26;;;;;;;22.77;17.58;;;22.50;99.90;;;;;;5052521;28;20033;-52
2022/08/26 01:37:53;;;;;;;24.30;18.25;;;22.60;99.90;;;;;;5052223;28;20029;-52
2022/08/26 01:40:31;;;;;;;23.30;19.52;;;22.60;99.90;;;;;;5000457;28;20473;-51
2022/08/26 01:42:58;;;;;;;24.40;19.30;;;22.50;99.90;;;;;;5051802;28;20036;-51
2022/08/26 01:45:27;;;;;;;22.30;18.75;;;22.60;99.90;;;;;;5051921;28;20388;-51
2022/08/26 01:47:57;;;;;;;23.05;19.42;;;22.50;99.90;;;;;;5051985;28;20024;-51
2022/08/26 01:50:29;;;;;;;25.85;20.10;;;22.50;99.90;;;;;;5052124;28;20090;-53
2022/08/26 01:52:57;;;;;;;28.00;20.55;;;22.50;99.90;;;;;;5052001;28;20025;-51
2022/08/26 01:55:24;;;;;;;25.50;21.48;;;22.50;99.90;;;;;;5051895;28;20048;-50
2022/08/26 01:57:53;;;;;;;27.60;21.48;;;22.50;99.90;;;;;;5051976;28;20033;-53
2022/08/26 02:00:20;;;;;;;22.15;19.83;;;22.50;99.90;;;;;;5051856;28;20033;-50
2022/08/26 02:02:50;;;;;;;26.10;20.75;;;22.40;99.90;;;;;;5052196;28;20436;-52
2022/08/26 02:05:20;;;;;;;24.83;19.85;;;22.50;99.90;;;;;;5052252;28;20044;-51
2022/08/26 02:07:49;;;;;;;27.42;19.00;;;22.40;99.90;;;;;;5051869;28;20029;-52
2022/08/26 02:10:15;;;;;;;22.90;20.42;;;22.50;99.90;;;;;;5053701;28;20037;-51
2022/08/26 02:12:41;;;;;;;25.17;21.15;;;22.50;99.90;;;;;;5056020;28;20534;-51
2022/08/26 02:15:09;;;;;;;23.17;19.00;;;22.50;99.90;;;;;;5004116;28;20048;-50
2022/08/26 02:17:44;;;;;;;25.92;19.77;;;22.50;99.90;;;;;;5056000;28;20024;-53
2022/08/26 02:20:13;;;;;;;23.23;18.92;;;22.50;99.90;;;;;;4994073;28;20042;-51
2022/08/26 02:22:40;;;;;;;24.85;20.23;;;22.50;99.90;;;;;;4993471;28;20556;-53
2022/08/26 02:25:11;;;;;;;22.15;19.48;;;22.50;99.90;;;;;;4994090;28;20117;-53
2022/08/26 02:27:37;;;;;;;23.55;18.90;;;22.50;99.90;;;;;;4994175;28;20034;-53
2022/08/26 02:30:25;;;;;;;21.45;19.30;;;22.50;99.90;;;;;;4993959;28;20030;-52
2022/08/26 02:32:51;;;;;;;25.08;19.40;;;22.50;99.90;;;;;;4946149;28;20077;-52
2022/08/26 02:35:19;;;;;;;22.58;18.52;;;22.50;99.90;;;;;;4945356;28;20576;-51
2022/08/26 02:37:45;;;;;;;21.50;18.20;;;22.50;99.90;;;;;;4993911;28;20164;-52
2022/08/26 02:40:14;;;;;;;22.08;17.40;;;22.50;99.90;;;;;;4993808;28;20042;-51
2022/08/26 02:42:40;;;;;;;28.25;18.67;;;22.50;99.90;;;;;;4993813;28;20038;-53
2022/08/26 02:45:07;;;;;;;21.33;17.77;;;22.40;99.90;;;;;;4993660;28;20552;-51
2022/08/26 02:47:33;;;;;;;24.65;19.45;;;22.50;99.90;;;;;;4913591;28;20066;-53
2022/08/26 02:49:59;;;;;;;24.10;18.75;;;22.50;99.90;;;;;;4994915;28;20026;-53
2022/08/26 02:52:25;;;;;;;23.80;19.58;;;22.50;99.90;;;;;;5055139;28;20516;-53
2022/08/26 02:54:51;;;;;;;22.88;19.23;;;22.50;99.90;;;;;;5003573;28;20045;-52
2022/08/26 02:57:18;;;;;;;26.27;18.33;;;22.50;99.90;;;;;;5055031;28;20139;-52
2022/08/26 02:59:44;;;;;;;22.95;17.17;;;22.50;99.90;;;;;;5055335;28;20037;-53
2022/08/26 03:02:10;;;;;;;24.33;19.00;;;22.40;99.90;;;;;;5054983;28;20036;-51
2022/08/26 03:04:37;;;;;;;25.98;19.90;;;22.40;99.90;;;;;;5054707;28;20500;-53
2022/08/26 03:07:04;;;;;;;25.35;19.77;;;22.30;99.90;;;;;;5054978;28;20029;-52
2022/08/26 03:09:30;;;;;;;23.85;20.75;;;22.20;99.90;;;;;;5054756;28;20025;-50
2022/08/26 03:11:56;;;;;;;28.27;20.70;;;22.20;99.90;;;;;;5055105;28;20039;-51
2022/08/26 03:14:23;;;;;;;33.45;20.65;;;;;;;;;;5054703;28;20051;-52
2022/08/26 03:16:51;;;;;;;26.40;19.30;;;22.10;99.90;;;;;;5055085;28;20025;-53
2022/08/26 03:19:17;;;;;;;23.88;20.50;;;22.20;99.90;;;;;;5054649;28;20492;-51
2022/08/26 03:21:43;;;;;;;23.95;20.73;;;22.20;99.90;;;;;;5053286;28;20545;-52
2022/08/26 03:24:11;;;;;;;29.38;19.45;;;22.20;99.90;;;;;;5054722;28;20025;-50
2022/08/26 03:26:37;;;;;;;31.65;20.20;;;22.20;99.90;;;;;;5054587;28;20039;-53
2022/08/26 03:31:48;;;;;;;27.33;20.85;;;22.20;99.90;;;;;;5054762;28;20079;-51
2022/08/26 03:34:14;;;;;;;25.55;19.48;;;;;;;;;;5019165;28;20443;-53
2022/08/26 03:36:40;;;;;;;26.60;21.42;;;22.20;99.90;;;;;;5054298;28;20056;-51
2022/08/26 03:39:07;;;;;;;26.83;20.35;;;22.30;99.90;;;;;;5054626;28;20021;-51
2022/08/26 03:41:35;;;;;;;23.50;19.92;;;22.40;99.90;;;;;;5054330;28;20032;-52
2022/08/26 03:44:02;;;;;;;28.02;19.33;;;22.30;99.90;;;;;;5054219;28;20089;-55
2022/08/26 03:46:30;;;;;;;23.10;18.63;;;22.40;99.90;;;;;;5054142;28;20469;-54
2022/08/26 03:48:56;;;;;;;23.70;18.70;;;22.40;99.90;;;;;;5018888;28;20112;-50
2022/08/26 03:51:22;;;;;;;21.13;18.38;;;22.40;99.90;;;;;;5054178;28;20108;-51
2022/08/26 03:53:48;;;;;;;28.42;19.55;;;22.30;99.90;;;;;;5002398;28;20545;-51
2022/08/26 03:56:14;;;;;;;25.00;18.27;;;22.40;99.90;;;;;;5054019;28;20420;-52
2022/08/26 03:58:40;;;;;;;21.85;18.25;;;22.30;99.90;;;;;;5053856;28;20166;-56
2022/08/26 04:48:04;;;;;;;24.48;20.10;;;21.70;99.90;;;;;;5081207;27;1485521;-49
2022/08/26 04:50:31;;;;;;;24.58;18.83;;;22.10;99.90;;;;;;5059073;28;20043;-49
2022/08/26 04:52:57;;;;;;;24.02;20.23;;;22.20;99.90;;;;;;5109587;28;20051;-50
2022/08/26 04:55:24;;;;;;;23.52;19.02;;;22.30;99.90;;;;;;5114038;28;20020;-51
2022/08/26 04:57:50;;;;;;;21.92;19.60;;;22.30;99.90;;;;;;5106848;28;20028;-51
2022/08/26 05:00:16;;;;;;;23.63;18.60;;;22.40;99.90;;;;;;5107969;28;20039;-50
2022/08/26 05:02:42;;;;;;;23.13;19.35;;;22.40;99.90;;;;;;5075885;28;20032;-52
2022/08/26 05:05:08;;;;;;;24.15;18.60;;;22.50;99.90;;;;;;5112890;28;20401;-51
2022/08/26 05:07:35;;;;;;;25.20;18.23;;;22.50;99.90;;;;;;5074427;28;20031;-49
2022/08/26 05:10:01;;;;;;;20.95;17.67;;;22.60;99.90;;;;;;5082298;28;20088;-51
2022/08/26 05:12:28;;;;;;;22.67;17.75;;;22.70;99.90;;;;;;5112053;28;20027;-51
2022/08/26 05:14:54;;;;;;;24.15;16.67;;;22.80;99.90;;;;;;5078304;28;20475;-50
2022/08/26 05:17:20;;;;;;;26.70;18.42;;;22.90;99.90;;;;;;5111954;28;20043;-52
2022/08/26 05:19:46;;;;;;;21.63;16.60;;;23.00;99.90;;;;;;5113664;28;20381;-51
2022/08/26 05:22:13;;;;;;;21.20;16.10;;;23.00;99.90;;;;;;5111559;28;20028;-50
2022/08/26 05:24:39;;;;;;;20.13;15.32;;;23.10;99.90;;;;;;5110642;28;20024;-52
2022/08/26 05:27:06;;;;;;;22.15;15.45;;;23.20;99.90;;;;;;5062332;28;20031;-52
2022/08/26 05:29:32;;;;;;;20.73;15.68;;;23.30;99.90;;;;;;5060787;28;20486;-53
2022/08/26 05:31:59;;;;;;;23.77;15.80;;;23.30;99.90;;;;;;5111022;28;20053;-53
2022/08/26 05:34:25;;;;;;;21.52;16.20;;;23.40;99.90;;;;;;5084384;28;20495;-50
2022/08/26 05:36:51;;;;;;;22.25;16.40;;;23.50;99.90;;;;;;5081243;28;20093;-51
2022/08/26 05:39:17;;;;;;;24.52;17.17;;;23.60;99.90;;;;;;5114716;28;20068;-52
2022/08/26 06:18:41;;;;;;;19.92;13.35;;;24.40;99.90;;;;;;5091968;27;20440;-50
2022/08/26 06:21:15;;;;;;;20.20;13.60;;;25.00;99.90;;;;;;5090576;28;20085;-49
2022/08/26 06:26:26;;;;;;;16.55;12.70;;;25.10;99.90;;;;;;5093858;28;20506;-56
2022/08/26 06:28:52;;;;;;;16.27;12.15;;;25.20;99.90;;;;;;5088106;28;20028;-55
2022/08/26 06:31:18;;;;;;;15.20;12.98;;;25.30;99.90;;;;;;5096618;28;20028;-54
2022/08/26 06:33:44;;;;;;;21.60;12.55;;;25.30;99.90;;;;;;5088228;28;20463;-53
2022/08/26 06:36:21;;;;;;;17.67;12.07;;;25.50;99.90;;;;;;5095339;28;20067;-55
2022/08/26 06:38:48;;;;;;;18.30;11.90;;;25.60;99.90;;;;;;5091109;28;20024;-54
2022/08/26 06:41:15;;;;;;;15.07;12.95;;;25.60;99.90;;;;;;5092573;28;20027;-55
2022/08/26 06:43:41;;;;;;;15.93;12.20;;;25.70;99.90;;;;;;5068052;28;20114;-54
2022/08/26 06:46:10;;;;;;;17.08;12.57;;;25.80;99.90;;;;;;5111221;28;20110;-54
2022/08/26 06:48:36;;;;;;;17.75;12.40;;;25.80;99.90;;;;;;5091550;28;20103;-53
2022/08/26 06:51:02;;;;;;;16.38;12.77;;;25.90;99.90;;;;;;5087447;28;20032;-56
2022/08/26 06:53:28;;;;;;;20.42;12.40;;;26.00;99.90;;;;;;5089410;28;20051;-52
2022/08/26 06:55:53;;;;;;;13.35;12.00;;;26.00;99.90;;;;;;5044528;28;20055;-55
2022/08/26 06:58:19;;;;;;;17.88;11.35;;;26.10;99.90;;;;;;5092244;28;20028;-52
2022/08/26 07:00:45;;;;;;;15.93;11.82;;;26.20;99.90;;;;;;5084451;28;20035;-56
2022/08/26 07:03:12;;;;;;;17.27;12.18;;;26.40;99.90;;;;;;5093714;28;20031;-55
2022/08/26 07:05:37;;;;;;;17.05;12.10;;;26.40;99.90;;;;;;5065689;28;20048;-51
2022/08/26 07:08:04;;;;;;;18.08;11.35;;;26.60;99.90;;;;;;5087645;28;20066;-52
2022/08/26 07:10:30;;;;;;;22.30;11.95;;;26.60;99.90;;;;;;5067473;28;20040;-54
2022/08/26 07:12:56;;;;;;;14.82;11.90;;;26.70;99.90;;;;;;5087413;28;20028;-53
2022/08/26 07:15:22;;;;;;;16.48;11.10;;;26.60;99.90;;;;;;5087906;28;20035;-52
2022/08/26 07:17:48;;;;;;;17.20;11.50;;;26.70;99.90;;;;;;5091084;28;20511;-48
2022/08/26 07:20:14;;;;;;;15.68;11.02;;;26.70;99.90;;;;;;5074492;28;20039;-51
2022/08/26 07:22:39;;;;;;;14.43;11.77;;;26.90;99.90;;;;;;5074276;28;20032;-53
2022/08/26 07:25:07;;;;;;;18.17;12.23;;;27.10;99.90;;;;;;5069765;28;20039;-52
2022/08/26 07:27:35;;;;;;;12.27;10.98;;;27.10;99.90;;;;;;5052425;28;20483;-52
2022/08/26 07:30:02;;;;;;;13.82;11.30;;;;;;;;;;5068965;28;20039;-54
2022/08/26 07:32:28;;;;;;;14.98;11.63;;;27.50;99.90;;;;;;5071092;28;20024;-50
2022/08/26 07:34:53;;;;;;;14.50;11.88;;;27.50;99.90;;;;;;5074111;28;20023;-53
2022/08/26 07:37:20;;;;;;;15.20;11.50;;;;;;;;;;5074235;28;20455;-50
2022/08/26 07:39:46;;;;;;;14.38;10.93;;;27.90;99.90;;;;;;5074365;28;20028;-53
2022/08/26 07:42:15;;;;;;;17.92;11.23;;;28.00;99.90;;;;;;5070883;28;20037;-50
2022/08/26 07:44:42;;;;;;;16.77;11.07;;;28.10;99.90;;;;;;5060599;28;20051;-53
2022/08/26 07:47:08;;;;;;;14.38;10.75;;;28.20;99.90;;;;;;5051133;28;20678;-52
2022/08/26 07:49:34;;;;;;;16.20;11.60;;;28.30;99.90;;;;;;5051421;28;20520;-51
2022/08/26 07:52:01;;;;;;;17.23;11.18;;;28.40;99.90;;;;;;5055767;28;20427;-53
2022/08/26 07:54:27;;;;;;;16.83;11.18;;;;;;;;;;5051027;28;20047;-53
2022/08/26 07:56:54;;;;;;;14.00;10.70;;;;;;;;;;5050805;28;20040;-54
2022/08/26 07:59:20;;;;;;;14.63;10.45;;;;;;;;;;5052026;28;20077;-50
2022/08/26 08:01:46;;;;;;;19.25;10.77;;;;;;;;;;5051879;28;20067;-48
2022/08/26 08:04:13;;;;;;;17.83;10.10;;;29.30;99.90;;;;;;5052889;28;20107;-52
2022/08/26 08:06:40;;;;;;;17.20;9.95;;;29.20;99.90;;;;;;5020177;28;20064;-57
2022/08/26 08:09:07;;;;;;;15.30;11.00;;;29.10;99.90;;;;;;5019939;28;20421;-50
2022/08/26 08:11:32;;;;;;;22.63;11.38;;;29.40;99.90;;;;;;5001436;28;20038;-54
2022/08/26 08:13:59;;;;;;;14.60;10.55;;;29.50;99.90;;;;;;5020335;28;20042;-51
2022/08/26 08:16:27;;;;;;;11.50;10.27;;;29.70;99.90;;;;;;5023691;28;20044;-51
2022/08/26 08:18:54;;;;;;;12.13;10.57;;;29.90;99.90;;;;;;5055433;28;20025;-51
2022/08/26 08:21:20;;;;;;;11.88;10.40;;;30.00;99.90;;;;;;5056746;28;20036;-54
2022/08/26 08:23:46;;;;;;;14.02;10.48;;;30.00;99.90;;;;;;5057740;28;20035;-54
2022/08/26 08:26:12;;;;;;;13.38;10.48;;;;;;;;;;5058755;28;20052;-52
2022/08/26 08:28:38;;;;;;;14.32;10.25;;;30.40;99.90;;;;;;5057366;28;20028;-51
2022/08/26 08:31:05;;;;;;;12.20;10.73;;;;;;;;;;5058438;28;20055;-50
2022/08/26 08:33:32;;;;;;;16.73;10.63;;;;;;;;;;5056376;28;20028;-51
2022/08/26 08:35:59;;;;;;;17.83;11.15;;;;;;;;;;5063858;28;20031;-54
2022/08/26 08:38:25;;;;;;;16.65;10.00;;;;;;;;;;5067680;28;20033;-51
2022/08/26 08:40:51;;;;;;;14.82;10.63;;;;;;;;;;5072266;28;20024;-55
2022/08/26 08:43:38;;;;;;;16.27;10.88;;;30.80;99.90;;;;;;5068522;28;20423;-53
2022/08/26 08:46:12;;;;;;;16.17;10.52;;;31.20;99.90;;;;;;5071521;28;20063;-52
2022/08/26 08:48:42;;;;;;;15.55;10.18;;;;;;;;;;5036388;28;20127;-54
2022/08/26 08:51:25;;;;;;;16.77;11.25;;;31.00;99.90;;;;;;5036547;28;20044;-58
2022/08/26 08:53:53;;;;;;;17.65;10.98;;;31.20;99.90;;;;;;5042250;28;20104;-51
2022/08/26 08:56:31;;;;;;;13.02;10.25;;;;;;;;;;5041191;28;20041;-51
2022/08/26 08:59:05;;;;;;;14.75;10.02;;;31.80;99.90;;;;;;5041175;28;20041;-51
2022/08/26 09:01:47;;;;;;;14.43;10.18;;;;;;;;;;5004027;28;20103;-50
2022/08/26 09:05:07;;;;;;;17.20;10.15;;;31.80;99.90;;;;;;5041523;28;20434;-50
2022/08/26 09:07:56;;;;;;;18.42;10.30;;;;;;;;;;5003660;28;20037;-50
2022/08/26 09:10:24;;;;;;;18.20;10.35;;;31.70;99.90;;;;;;4931833;29;20031;-50
2022/08/26 09:12:51;;;;;;;16.38;10.98;;;32.20;99.90;;;;;;4931726;29;20563;-51
2022/08/26 09:15:17;;;;;;;13.70;10.20;;;;;;;;;;4927752;29;20444;-53
2022/08/26 09:17:47;;;;;;;14.02;9.27;;;;;;;;;;4930739;29;20050;-50
2022/08/26 09:20:24;;;;;;;15.53;8.87;;;32.30;99.90;;;;;;4930987;28;20036;-50
2022/08/26 09:22:50;;;;;;;15.20;9.32;;;32.30;99.90;;;;;;4947862;28;20035;-52
2022/08/26 09:25:16;;;;;;;14.88;9.07;;;32.40;99.90;;;;;;4950206;28;20467;-49
2022/08/26 09:27:44;;;;;;;16.70;10.27;;;32.40;99.90;;;;;;4950015;28;20163;-51
2022/08/26 09:30:31;;;;;;;13.43;10.07;;;32.50;99.90;;;;;;4949218;28;20028;-51
2022/08/26 09:33:00;;;;;;;15.23;9.10;;;32.40;99.90;;;;;;4950337;28;20031;-52
2022/08/26 09:35:30;;;;;;;20.40;9.80;;;32.60;99.90;;;;;;4950539;28;20046;-49
2022/08/26 09:37:56;;;;;;;12.05;9.10;;;32.40;99.90;;;;;;4950034;28;20046;-50
2022/08/26 09:40:28;;;;;;;17.70;9.52;;;32.20;99.90;;;;;;4954494;28;20657;-54
2022/08/26 09:43:14;;;;;;;14.40;8.35;;;32.40;99.90;;;;;;4988502;28;20418;-49
2022/08/26 09:45:44;;;;;;;17.48;9.05;;;32.40;99.90;;;;;;4986045;28;20601;-49
2022/08/26 09:48:10;;;;;;;18.83;9.50;;;32.60;99.90;;;;;;5055793;28;20503;-52
2022/08/26 09:50:55;;;;;;;18.58;9.23;;;32.60;99.90;;;;;;5068918;28;20047;-49
2022/08/26 09:53:24;;;;;;;14.18;9.55;;;32.20;99.90;;;;;;5069013;28;20036;-53
2022/08/26 09:56:09;;;;;;;12.60;8.80;;;32.10;99.90;;;;;;5074791;28;20075;-49
2022/08/26 09:58:42;;;;;;;14.45;8.60;;;32.00;99.90;;;;;;5074889;28;20024;-48
2022/08/26 10:01:16;;;;;;;10.55;7.72;;;32.40;99.90;;;;;;5070524;28;20033;-50
2022/08/26 10:03:43;;;;;;;15.05;8.13;;;32.40;99.90;;;;;;5053438;28;20132;-51
2022/08/26 10:06:20;;;;;;;15.23;8.25;;;32.40;99.90;;;;;;5076541;28;20491;-53
2022/08/26 10:08:50;;;;;;;13.15;6.93;;;32.30;99.90;;;;;;5071327;28;20127;-55
2022/08/26 10:11:44;;;;;;;15.70;7.95;;;32.70;99.90;;;;;;5077829;28;20365;-51
2022/08/26 10:14:23;;;;;;;10.32;8.45;;;32.80;99.90;;;;;;5066582;28;20093;-48
2022/08/26 10:16:59;;;;;;;13.23;7.97;;;33.20;99.90;;;;;;5071062;28;20086;-52
2022/08/26 10:19:33;;;;;;;10.77;7.18;;;33.40;99.90;;;;;;5072472;28;20025;-49
2022/08/26 10:22:19;;;;;;;11.27;6.80;;;33.30;99.90;;;;;;5070589;28;20037;-52
2022/08/26 10:24:48;;;;;;;12.52;7.85;;;;;;;;;;5076091;28;20028;-48
2022/08/26 10:27:59;;;;;;;16.73;7.90;;;33.70;99.90;;;;;;5070679;28;20466;-52
2022/08/26 10:30:32;;;;;;;19.25;7.80;;;33.90;99.90;;;;;;5048387;28;20040;-50
2022/08/26 10:33:04;;;;;;;13.23;7.47;;;34.10;99.90;;;;;;5072257;28;20033;-53
2022/08/26 10:35:33;;;;;;;12.65;7.50;;;34.00;99.90;;;;;;5075069;28;20033;-54
2022/08/26 10:38:03;;;;;;;14.68;7.15;;;;;;;;;;5071813;28;20561;-49
2022/08/26 10:40:40;;;;;;;10.80;6.60;;;34.30;99.90;;;;;;5069547;28;20142;-50
2022/08/26 10:43:16;;;;;;;13.55;7.38;;;34.40;99.90;;;;;;5072094;28;20024;-52
2022/08/26 10:45:49;;;;;;;11.23;8.50;;;34.30;99.90;;;;;;5071855;28;20518;-50
2022/08/26 10:48:26;;;;;;;17.25;6.50;;;34.50;99.90;;;;;;5070573;28;20092;-52
2022/08/26 10:50:55;;;;;;;11.93;7.55;;;34.10;99.90;;;;;;5072063;28;20424;-50
2022/08/26 10:53:32;;;;;;;13.95;6.25;;;33.30;99.90;;;;;;5072403;28;20020;-49
2022/08/26 10:56:21;;;;;;;10.45;6.53;;;33.20;99.90;;;;;;5072227;28;20025;-52
2022/08/26 10:59:09;;;;;;;9.30;5.80;;;33.80;99.90;;;;;;5050831;28;20033;-50
2022/08/26 11:02:16;;;;;;;11.45;5.95;;;34.40;99.90;;;;;;5051936;28;20055;-51
2022/08/26 11:05:23;;;;;;;10.77;6.30;;;34.10;99.90;;;;;;4917338;29;20106;-48
2022/08/26 11:08:12;;;;;;;10.25;6.93;;;34.30;99.90;;;;;;4925549;29;20051;-51
2022/08/26 11:10:56;;;;;;;9.75;6.88;;;34.60;99.90;;;;;;4931849;29;20403;-48
2022/08/26 11:13:56;;;;;;;12.43;6.90;;;35.10;99.90;;;;;;4923764;29;20044;-49
2022/08/26 11:16:35;;;;;;;10.68;6.10;;;35.20;99.90;;;;;;4928959;29;20150;-52
2022/08/26 11:19:01;;;;;;;9.55;6.75;;;;;;;;;;4927331;29;20058;-53
2022/08/26 11:21:59;;;;;;;10.73;5.53;;;35.30;99.90;;;;;;4914099;29;20044;-52
2022/08/26 11:24:57;;;;;;;13.48;5.75;;;35.50;99.90;;;;;;4930795;29;20201;-53
2022/08/26 11:27:35;;;;;;;11.73;5.85;;;35.70;99.90;;;;;;4921921;29;20130;-49
2022/08/26 11:30:06;;;;;;;13.07;6.75;;;35.50;99.90;;;;;;4959832;28;20059;-52
2022/08/26 11:32:38;;;;;;;11.30;5.60;;;35.40;99.90;;;;;;4969240;28;20027;-48
2022/08/26 11:35:20;;;;;;;13.15;6.07;;;35.30;99.90;;;;;;4968014;28;20031;-53
2022/08/26 11:37:50;;;;;;;13.30;5.95;;;35.50;99.90;;;;;;4955346;28;20067;-48
2022/08/26 11:40:24;;;;;;;11.38;6.88;;;36.00;99.60;;;;;;4972454;28;20031;-51
2022/08/26 11:42:54;;;;;;;15.05;7.03;;;35.30;99.90;;;;;;5052088;28;20129;-50
2022/08/26 11:45:33;;;;;;;13.77;6.65;;;35.30;99.90;;;;;;5051520;28;20036;-50
2022/08/26 11:48:28;;;;;;;15.40;6.57;;;35.40;99.90;;;;;;5054144;28;20098;-52
2022/08/26 11:51:15;;;;;;;16.33;6.65;;;35.50;99.90;;;;;;5055893;28;20037;-52
2022/08/26 11:53:45;;;;;;;11.63;6.13;;;36.00;99.30;;;;;;5039257;28;20069;-48
2022/08/26 11:56:26;;;;;;;18.20;6.22;;;36.40;98.60;;;;;;5052544;28;20479;-47
2022/08/26 11:58:56;;;;;;;12.80;6.50;;;36.50;98.00;;;;;;5051222;28;20075;-52
2022/08/26 12:01:28;;;;;;;17.33;6.78;;;36.10;97.40;;;;;;5028349;28;20514;-50
2022/08/26 12:03:54;;;;;;;;;;;36.10;97.90;;;;;;5071514;28;20430;-46
2022/08/26 12:06:30;;;;;;;14.07;6.10;;;35.90;97.80;;;;;;5075697;28;19912;-53
2022/08/26 12:09:00;;;;;;;13.73;6.85;;;35.50;97.50;;;;;;5073747;28;20051;-51
2022/08/26 12:11:31;;;;;;;15.07;6.95;;;35.70;98.60;;;;;;5074679;28;20430;-54
2022/08/26 12:14:03;;;;;;;16.90;6.50;;;35.90;97.50;;;;;;5073774;28;20052;-49
2022/08/26 12:16:35;;;;;;;19.65;6.53;;;36.00;97.40;;;;;;5071105;28;20051;-50
2022/08/26 12:19:40;;;;;;;15.10;6.80;;;36.20;98.30;;;;;;5035781;28;20139;-53
2022/08/26 12:22:21;;;;;;;12.95;6.15;;;36.30;96.80;;;;;;5000643;28;20117;-52
2022/08/26 12:24:55;;;;;;;15.82;5.40;;;36.10;96.50;;;;;;5004850;28;20025;-51
2022/08/26 12:27:31;;;;;;;18.27;6.25;;;36.10;96.90;;;;;;4997923;28;20057;-53
2022/08/26 12:30:03;;;;;;;12.27;5.50;;;36.30;97.20;;;;;;4950771;28;20037;-48
2022/08/26 12:32:33;;;;;;;16.17;6.35;;;36.20;96.10;;;;;;5004997;28;20050;-52
2022/08/26 12:35:01;;;;;;;19.20;5.97;;;36.10;96.10;;;;;;5009516;28;20054;-50
2022/08/26 12:37:31;;;;;;;19.73;5.57;;;36.20;95.00;;;;;;5005632;28;20056;-52
2022/08/26 12:40:35;;;;;;;15.38;5.93;;;36.30;95.30;;;;;;5009475;28;20162;-52
2022/08/26 12:43:04;;;;;;;18.05;5.95;;;36.60;95.60;;;;;;5011113;28;20098;-50
2022/08/26 12:45:32;;;;;;;13.75;5.68;;;36.40;95.60;;;;;;5024786;28;20088;-50
2022/08/26 12:48:08;;;;;;;14.63;6.03;;;36.40;95.90;;;;;;5026058;28;20053;-51
2022/08/26 12:50:37;;;;;;;16.25;6.03;;;36.20;96.30;;;;;;5019480;28;20037;-54
2022/08/26 12:53:13;;;;;;;14.45;6.80;;;36.40;96.20;;;;;;5010626;28;20050;-53
2022/08/26 12:55:46;;;;;;;12.18;6.50;;;36.50;96.00;;;;;;5064049;28;20040;-52
2022/08/26 12:58:15;;;;;;;13.13;5.90;;;36.50;96.00;;;;;;5045851;28;20046;-49
2022/08/26 13:00:45;;;;;;;21.27;5.85;;;36.70;95.80;;;;;;5060780;28;20036;-52
2022/08/26 13:03:42;;;;;;;17.88;7.32;;;36.80;94.80;;;;;;5059125;28;20489;-49
2022/08/26 13:06:08;;;;;;;11.70;6.03;;;;;;;;;;5065932;28;20037;-50
2022/08/26 13:08:36;;;;;;;11.77;5.35;;;;;;;;;;5071414;28;20036;-49
2022/08/26 13:11:17;;;;;;;18.38;5.75;;;;;;;;;;5050932;28;20043;-48
2022/08/26 13:13:43;;;;;;;;;;;;;;;;;;5072324;28;20043;-48
2022/08/26 13:16:09;;;;;;;12.68;5.72;;;;;;;;;;5073403;28;19908;-48
2022/08/26 13:18:35;;;;;;;13.40;5.20;;;;;;;;;;5051158;28;20060;-48
2022/08/26 13:21:11;;;;;;;15.68;6.15;;;37.40;99.90;;;;;;5072211;28;20032;-49
2022/08/26 13:23:37;;;;;;;12.95;5.38;;;37.50;99.90;;;;;;5067741;28;20390;-50
2022/08/26 13:26:03;;;;;;;16.25;5.95;;;37.00;99.90;;;;;;5073796;28;20039;-50
2022/08/26 13:28:29;;;;;;;20.13;6.72;;;36.90;99.30;;;;;;5071807;28;20035;-60
2022/08/26 13:30:54;;;;;;;14.63;5.50;;;36.60;94.90;;;;;;5068540;28;20102;-60
2022/08/26 13:33:21;;;;;;;16.52;5.97;;;36.30;94.90;;;;;;5070084;28;20036;-52
2022/08/26 13:35:47;;;;;;;10.95;5.10;;;36.10;95.00;;;;;;5071495;28;20829;-51
2022/08/26 13:38:13;;;;;;;15.90;5.47;;;36.20;94.00;;;;;;5068667;28;20045;-46
2022/08/26 13:40:43;;;;;;;11.45;4.93;;;36.30;93.50;;;;;;5051004;28;20139;-49
2022/08/26 13:43:10;;;;;;;18.48;5.43;;;36.40;93.30;;;;;;5067730;28;20040;-48
2022/08/26 13:45:37;;;;;;;14.88;5.80;;;36.80;94.60;;;;;;5073539;28;20070;-49
2022/08/26 13:48:04;;;;;;;13.93;5.30;;;37.40;93.40;;;;;;5070326;28;20131;-50
2022/08/26 13:50:31;;;;;;;16.60;5.40;;;37.50;93.40;;;;;;5042150;28;20422;-53
2022/08/26 13:52:56;;;;;;;11.98;5.25;;;37.60;93.80;;;;;;5070453;28;20025;-53
2022/08/26 14:13:15;;;;;;;15.63;5.25;;;37.90;93.60;;;;;;5058238;28;20400;-52
2022/08/26 14:15:41;;;;;;;10.70;5.00;;;37.30;94.80;;;;;;5042830;28;20052;-50
2022/08/26 14:18:09;;;;;;;16.60;4.72;;;37.40;94.20;;;;;;5047068;28;20033;-50
2022/08/26 14:20:35;;;;;;;18.67;5.28;;;37.30;94.00;;;;;;5044659;28;20554;-53
2022/08/26 14:23:02;;;;;;;19.38;5.50;;;37.10;93.80;;;;;;5040548;28;20384;-51
2022/08/26 14:25:28;;;;;;;15.13;5.40;;;36.80;94.00;;;;;;5043375;28;20026;-50
2022/08/26 14:27:55;;;;;;;23.88;6.22;;;36.70;93.70;;;;;;5046206;28;20086;-48
2022/08/26 14:30:22;;;;;;;17.10;4.75;;;36.90;93.80;;;;;;5048234;28;20029;-52
2022/08/26 14:32:51;;;;;;;12.70;4.68;;;37.00;93.40;;;;;;5047169;28;20033;-50
2022/08/26 14:35:23;;;;;;;14.85;5.05;;;37.10;93.60;;;;;;5047123;28;20018;-50
2022/08/26 14:37:50;;;;;;;16.77;4.32;;;37.30;93.30;;;;;;5046418;28;20361;-56
2022/08/26 14:40:18;;;;;;;15.05;4.95;;;37.50;93.00;;;;;;5046758;28;20025;-49
2022/08/26 14:42:48;;;;;;;11.70;4.85;;;37.60;92.80;;;;;;5046934;28;20041;-48
2022/08/26 14:45:17;;;;;;;17.45;4.75;;;37.40;92.30;;;;;;5046649;28;20052;-51